Switzerland, Florida
Current Conditions -  °F | °C
As of 3:53 AM on Wednesday 22 Oct 2014 (Local Time) from KNIP Reporting Station
Clear Clear  
Wind Chill: 70°   Ceiling: Unl
Heat Index: 70°   Visibility: 10mi
Dew Point: 56°   Wind: 6mph
Humidity: 61%   Direction: 320°NW
Pressure: 29.95"   Gusts: NA
Location:  30.0735°N, 81.5808°W
Report Text: KNIP 220753Z 32005KT 10SM CLR 21/13 A2995 RMK AO2 SLP137 T02110133
Loading
Personal Weather Stations






























Interactive Weather Map
Tropical Storm Tracking
New forecast layout! Learn more

10-Day Weather Forecast

Advertisements
Track Severe Weather on mobile